Time;durP1;ratioP1;P1;durP2;ratioP2;P2;SDS_P1;SDS_P2;PMS_P1;PMS_P2;Temp;Humidity;BMP_temperature;BMP_pressure;BME280_temperature;BME280_humidity;BME280_pressure;Samples;Min_cycle;Max_cycle;Signal;HPM_P1;HPM_P2
2023/12/02 00:00:49;;;;;;;0.95;0.55;;;16.50;39.40;;;;;;5031591;28;20081;-68
2023/12/02 00:03:14;;;;;;;1.17;0.60;;;16.50;39.50;;;;;;5031678;28;20381;-67
2023/12/02 00:05:40;;;;;;;1.10;0.70;;;16.40;39.40;;;;;;5031713;28;20558;-66
2023/12/02 00:08:05;;;;;;;0.90;0.60;;;16.50;39.50;;;;;;5030326;28;20045;-68
2023/12/02 00:10:31;;;;;;;1.05;0.73;;;16.40;39.60;;;;;;5030536;28;20059;-68
2023/12/02 00:12:57;;;;;;;1.23;0.77;;;16.40;39.50;;;;;;5030637;28;20409;-67
2023/12/02 00:15:22;;;;;;;1.00;0.77;;;16.40;39.60;;;;;;5030236;28;20042;-68
2023/12/02 00:17:48;;;;;;;1.40;0.70;;;16.40;40.30;;;;;;5030578;28;20045;-67
2023/12/02 00:20:14;;;;;;;1.27;0.85;;;16.40;39.60;;;;;;5031394;28;20462;-66
2023/12/02 00:22:39;;;;;;;1.00;0.60;;;16.40;39.50;;;;;;5030208;28;20436;-66
2023/12/02 00:25:05;;;;;;;1.27;0.77;;;16.40;39.50;;;;;;5031467;28;20052;-68
2023/12/02 00:27:31;;;;;;;1.52;0.65;;;16.40;39.50;;;;;;5030361;28;20061;-67
2023/12/02 00:29:56;;;;;;;1.50;0.93;;;16.40;39.50;;;;;;5031546;28;20037;-68
2023/12/02 00:32:22;;;;;;;1.17;0.95;;;16.40;39.50;;;;;;5029979;28;20041;-66
2023/12/02 00:34:48;;;;;;;1.10;0.75;;;16.40;39.50;;;;;;5031620;28;20174;-67
2023/12/02 00:37:13;;;;;;;1.77;1.00;;;16.40;39.50;;;;;;5031272;28;20048;-68
2023/12/02 00:39:39;;;;;;;1.63;0.95;;;16.40;39.50;;;;;;5013539;28;20481;-67
2023/12/02 00:42:04;;;;;;;0.95;0.60;;;16.40;39.60;;;;;;5031106;28;20184;-68
2023/12/02 00:44:30;;;;;;;2.03;0.63;;;16.30;39.50;;;;;;5029993;28;20405;-68
2023/12/02 00:46:56;;;;;;;1.10;0.60;;;16.40;39.60;;;;;;5029487;28;20090;-66
2023/12/02 00:49:22;;;;;;;1.30;0.80;;;16.30;39.60;;;;;;5032939;28;20038;-66
2023/12/02 00:51:48;;;;;;;1.95;0.70;;;16.30;39.60;;;;;;5034855;28;20052;-68
2023/12/02 00:54:13;;;;;;;1.30;0.85;;;16.30;39.60;;;;;;5033606;28;20041;-67
2023/12/02 00:56:39;;;;;;;1.17;0.70;;;16.30;39.70;;;;;;5033544;28;20068;-68
2023/12/02 00:59:04;;;;;;;1.38;0.73;;;16.30;39.60;;;;;;5033481;28;20045;-68
2023/12/02 01:01:30;;;;;;;1.17;0.60;;;16.30;39.70;;;;;;5033433;28;20046;-68
2023/12/02 01:03:55;;;;;;;1.00;0.73;;;16.30;39.60;;;;;;5033586;28;20497;-66
2023/12/02 01:06:21;;;;;;;1.10;0.80;;;16.30;39.60;;;;;;5033358;28;20033;-67
2023/12/02 01:08:47;;;;;;;1.38;0.73;;;16.30;39.70;;;;;;5033516;28;20061;-68
2023/12/02 01:11:12;;;;;;;1.42;0.75;;;16.30;39.70;;;;;;5034564;28;20504;-68
2023/12/02 01:13:38;;;;;;;1.45;0.75;;;16.30;39.70;;;;;;5033101;28;20041;-67
2023/12/02 01:16:04;;;;;;;1.30;0.70;;;16.30;39.70;;;;;;5033375;28;20408;-66
2023/12/02 01:18:29;;;;;;;0.88;0.60;;;16.30;39.70;;;;;;5034375;28;20060;-69
2023/12/02 01:20:55;;;;;;;1.23;0.60;;;16.30;39.70;;;;;;5033147;28;20111;-67
2023/12/02 01:23:21;;;;;;;1.00;0.73;;;16.30;39.70;;;;;;5032969;28;20481;-68
2023/12/02 01:25:47;;;;;;;1.25;0.90;;;16.30;39.60;;;;;;5032978;28;20038;-68
2023/12/02 01:28:12;;;;;;;1.23;0.80;;;16.20;39.60;;;;;;5034021;28;20033;-68
2023/12/02 01:30:38;;;;;;;1.13;0.57;;;16.30;39.70;;;;;;5032972;28;20084;-68
2023/12/02 01:33:03;;;;;;;1.10;0.75;;;16.20;39.70;;;;;;5033009;28;20050;-66
2023/12/02 01:35:29;;;;;;;1.45;0.93;;;16.20;39.70;;;;;;5033054;28;20045;-68
2023/12/02 01:37:55;;;;;;;1.20;0.90;;;16.20;39.70;;;;;;5032673;28;20128;-68
2023/12/02 01:40:20;;;;;;;1.23;0.80;;;16.20;39.70;;;;;;5033690;28;20045;-68
2023/12/02 01:42:46;;;;;;;1.02;0.63;;;16.20;39.70;;;;;;5033857;28;20114;-68
2023/12/02 01:45:12;;;;;;;1.20;0.70;;;16.20;39.80;;;;;;5033702;28;20033;-67
2023/12/02 01:47:38;;;;;;;1.40;0.90;;;16.20;39.70;;;;;;5032541;28;20041;-68
2023/12/02 01:50:04;;;;;;;1.13;0.70;;;16.20;39.70;;;;;;5033831;28;20159;-68
2023/12/02 01:52:30;;;;;;;1.10;0.70;;;16.20;39.70;;;;;;5033778;28;20052;-68
2023/12/02 01:54:55;;;;;;;1.45;1.00;;;16.20;39.70;;;;;;5032399;28;20442;-68
2023/12/02 01:57:22;;;;;;;1.20;0.90;;;16.20;39.70;;;;;;5032371;28;20045;-68
2023/12/02 01:59:53;;;;;;;1.02;0.45;;;16.20;39.70;;;;;;5033445;28;20064;-68
2023/12/02 02:02:19;;;;;;;1.63;0.73;;;16.20;39.80;;;;;;5032332;28;20040;-68
2023/12/02 02:04:45;;;;;;;1.73;0.80;;;16.20;39.70;;;;;;5032225;28;20045;-68
2023/12/02 02:07:10;;;;;;;1.65;0.75;;;16.10;39.60;;;;;;5032440;28;20385;-69
2023/12/02 02:09:46;;;;;;;1.50;0.80;;;16.10;39.60;;;;;;5032401;28;20389;-68
2023/12/02 02:12:13;;;;;;;1.33;0.90;;;16.10;39.70;;;;;;5033254;28;20049;-68
2023/12/02 02:14:38;;;;;;;1.00;0.70;;;16.10;39.60;;;;;;5032031;28;20076;-68
2023/12/02 02:17:04;;;;;;;1.17;0.75;;;16.10;39.70;;;;;;5033308;28;20092;-69
2023/12/02 02:19:31;;;;;;;1.40;1.15;;;16.10;39.70;;;;;;5033114;28;20568;-69
2023/12/02 02:21:57;;;;;;;1.13;0.77;;;16.00;39.60;;;;;;5033120;28;20049;-69
2023/12/02 02:24:23;;;;;;;1.27;0.88;;;16.10;39.70;;;;;;5032094;28;20048;-68
2023/12/02 02:26:49;;;;;;;1.17;0.77;;;16.10;39.70;;;;;;5032055;28;20041;-68
2023/12/02 02:29:14;;;;;;;1.35;0.70;;;16.10;39.70;;;;;;5031729;28;20416;-69
2023/12/02 02:31:40;;;;;;;1.10;1.00;;;16.10;40.40;;;;;;5031908;28;20053;-68
2023/12/02 02:34:06;;;;;;;1.73;0.90;;;16.10;39.70;;;;;;5031662;28;20103;-68
2023/12/02 02:36:31;;;;;;;1.02;0.65;;;16.10;39.60;;;;;;5032850;28;20079;-69
2023/12/02 02:38:57;;;;;;;1.30;0.80;;;16.10;39.70;;;;;;5031828;28;20113;-67
2023/12/02 02:41:23;;;;;;;1.00;0.60;;;16.10;39.70;;;;;;5031251;28;20191;-67
2023/12/02 02:43:49;;;;;;;1.30;0.95;;;16.00;39.60;;;;;;5032688;28;20045;-68
2023/12/02 02:46:14;;;;;;;1.70;0.75;;;16.00;39.60;;;;;;5032806;28;20040;-67
2023/12/02 02:48:40;;;;;;;1.15;0.60;;;16.00;39.60;;;;;;5031421;28;20381;-68
2023/12/02 02:51:06;;;;;;;1.45;0.70;;;16.10;39.70;;;;;;5031607;28;20037;-68
2023/12/02 02:53:31;;;;;;;1.33;0.77;;;16.00;39.60;;;;;;5031281;28;20500;-67
2023/12/02 02:55:57;;;;;;;1.38;0.75;;;16.10;39.60;;;;;;5031369;28;20048;-68
2023/12/02 02:58:23;;;;;;;1.20;0.80;;;16.00;39.60;;;;;;5032477;28;20042;-68
2023/12/02 03:00:48;;;;;;;1.35;0.93;;;16.10;39.60;;;;;;5030982;28;20049;-68
2023/12/02 03:03:14;;;;;;;1.33;0.80;;;16.00;39.60;;;;;;5031428;28;20037;-67
2023/12/02 03:05:40;;;;;;;1.20;0.70;;;16.00;39.60;;;;;;5031372;28;20037;-68
2023/12/02 03:08:05;;;;;;;1.30;0.80;;;16.00;39.60;;;;;;5031065;28;20069;-68
2023/12/02 03:10:31;;;;;;;1.55;0.80;;;16.00;39.60;;;;;;5030927;28;20041;-68
2023/12/02 03:12:57;;;;;;;1.33;0.90;;;16.00;39.60;;;;;;5032618;28;20427;-68
2023/12/02 03:15:22;;;;;;;1.23;0.77;;;16.00;39.60;;;;;;5031166;28;20053;-68
2023/12/02 03:17:48;;;;;;;1.52;0.80;;;16.00;39.60;;;;;;5031154;28;20052;-69
2023/12/02 03:20:14;;;;;;;1.50;0.90;;;16.00;39.60;;;;;;5031003;28;20045;-69
2023/12/02 03:22:39;;;;;;;1.08;0.63;;;16.00;39.60;;;;;;5032092;28;20038;-68
2023/12/02 03:25:06;;;;;;;1.25;0.70;;;15.90;39.60;;;;;;5031081;28;20042;-67
2023/12/02 03:27:32;;;;;;;1.17;0.60;;;15.90;39.70;;;;;;5030725;28;20628;-68
2023/12/02 03:29:57;;;;;;;1.42;0.82;;;16.00;39.70;;;;;;5032026;28;20029;-67
2023/12/02 03:32:23;;;;;;;1.40;1.00;;;16.00;39.70;;;;;;5030912;28;20041;-67
2023/12/02 03:34:49;;;;;;;1.13;0.70;;;16.00;39.60;;;;;;5030775;28;20045;-68
2023/12/02 03:37:14;;;;;;;1.45;0.73;;;15.90;39.60;;;;;;5030761;28;20045;-68
2023/12/02 03:39:40;;;;;;;0.95;0.63;;;16.00;39.70;;;;;;5031699;28;20564;-68
2023/12/02 03:42:05;;;;;;;1.52;0.80;;;15.90;39.60;;;;;;5030565;28;20049;-68
2023/12/02 03:44:31;;;;;;;1.73;1.10;;;16.00;39.60;;;;;;5030829;28;20052;-69
2023/12/02 03:46:57;;;;;;;1.40;0.82;;;15.90;39.70;;;;;;5031775;28;20073;-68
2023/12/02 03:49:23;;;;;;;1.65;0.80;;;15.90;39.60;;;;;;5030526;28;20038;-69
2023/12/02 03:51:49;;;;;;;1.20;0.70;;;15.90;39.60;;;;;;5032039;28;20041;-69
2023/12/02 03:54:14;;;;;;;1.30;0.70;;;15.90;39.60;;;;;;5030465;28;20485;-68
2023/12/02 03:56:40;;;;;;;0.70;0.52;;;16.00;39.60;;;;;;5031825;28;20103;-68
2023/12/02 03:59:06;;;;;;;0.93;0.43;;;15.90;39.60;;;;;;5030700;28;20081;-68
2023/12/02 04:01:31;;;;;;;1.60;0.98;;;15.90;39.60;;;;;;5030379;28;20055;-67
2023/12/02 04:03:57;;;;;;;1.73;0.80;;;15.90;39.60;;;;;;5030389;28;20041;-66
2023/12/02 04:06:23;;;;;;;0.90;0.50;;;16.00;39.60;;;;;;5030423;28;20473;-67
2023/12/02 04:08:49;;;;;;;0.98;0.50;;;16.60;38.90;;;;;;5031618;28;20099;-69
2023/12/02 04:11:14;;;;;;;1.02;0.73;;;17.20;37.90;;;;;;5031742;28;20045;-68
2023/12/02 04:13:40;;;;;;;1.00;0.73;;;17.90;36.80;;;;;;5030455;28;20076;-68
2023/12/02 04:16:06;;;;;;;0.98;0.60;;;18.70;35.60;;;;;;5031538;28;20044;-67
2023/12/02 04:18:31;;;;;;;0.80;0.68;;;19.50;34.30;;;;;;5031481;28;20049;-67
2023/12/02 04:20:57;;;;;;;0.80;0.40;;;20.40;33.20;;;;;;5031510;28;20041;-68
2023/12/02 04:23:23;;;;;;;1.50;0.60;;;21.10;32.10;;;;;;5032120;28;20037;-67
2023/12/02 04:25:48;;;;;;;0.90;0.40;;;21.70;31.30;;;;;;5034051;28;20088;-68
2023/12/02 04:28:14;;;;;;;1.00;0.50;;;22.20;30.60;;;;;;5034012;28;20116;-68
2023/12/02 04:30:40;;;;;;;1.02;0.40;;;22.70;30.10;;;;;;5033981;28;20041;-68
2023/12/02 04:33:05;;;;;;;0.80;0.55;;;23.00;29.70;;;;;;5034206;28;20048;-67
2023/12/02 04:35:34;;;;;;;1.00;0.47;;;23.40;29.40;;;;;;5033871;28;20401;-68
2023/12/02 04:37:59;;;;;;;0.80;0.50;;;23.70;29.20;;;;;;5033902;28;20049;-68
2023/12/02 04:40:25;;;;;;;0.70;0.40;;;23.80;29.10;;;;;;5034811;28;20434;-69
2023/12/02 04:42:51;;;;;;;0.50;0.30;;;23.80;29.00;;;;;;5033813;28;20048;-67
2023/12/02 04:45:16;;;;;;;0.63;0.40;;;23.70;29.10;;;;;;5033701;28;20041;-68
2023/12/02 04:47:42;;;;;;;1.20;0.30;;;23.60;29.20;;;;;;5034910;28;20377;-68
2023/12/02 04:50:08;;;;;;;0.73;0.47;;;23.50;29.30;;;;;;5033624;28;20037;-68
2023/12/02 04:52:33;;;;;;;0.73;0.50;;;23.30;29.50;;;;;;5035122;28;20310;-68
2023/12/02 04:54:59;;;;;;;0.57;0.40;;;23.10;29.70;;;;;;5033838;28;20045;-68
2023/12/02 04:57:26;;;;;;;0.80;0.40;;;22.90;29.90;;;;;;5035222;28;20112;-68
2023/12/02 04:59:52;;;;;;;1.10;0.60;;;22.80;30.00;;;;;;5034733;28;20037;-68
2023/12/02 05:02:19;;;;;;;0.70;0.40;;;22.60;30.20;;;;;;5034657;28;20072;-68
2023/12/02 05:04:45;;;;;;;0.70;0.38;;;22.40;30.40;;;;;;5033356;28;20037;-68
2023/12/02 05:07:11;;;;;;;0.73;0.40;;;22.20;30.70;;;;;;5034750;28;20037;-68
2023/12/02 05:09:37;;;;;;;0.82;0.50;;;22.00;30.90;;;;;;5033592;28;20374;-68
2023/12/02 05:12:03;;;;;;;0.68;0.35;;;21.80;31.10;;;;;;5033409;28;20045;-68
2023/12/02 05:14:28;;;;;;;0.80;0.52;;;21.60;31.40;;;;;;5033696;28;20389;-68
2023/12/02 05:16:54;;;;;;;0.68;0.40;;;21.50;31.60;;;;;;5034340;28;20041;-69
2023/12/02 05:19:20;;;;;;;0.75;0.40;;;21.30;31.90;;;;;;5034285;28;20041;-69
2023/12/02 05:21:45;;;;;;;1.00;0.47;;;21.10;32.10;;;;;;5032980;28;20056;-68
2023/12/02 05:24:11;;;;;;;0.68;0.40;;;21.00;32.40;;;;;;5032990;28;20037;-67
2023/12/02 05:26:36;;;;;;;0.70;0.40;;;20.80;32.60;;;;;;5033165;28;20124;-68
2023/12/02 05:29:05;;;;;;;1.08;0.40;;;20.60;32.80;;;;;;5033268;28;20119;-68
2023/12/02 05:31:31;;;;;;;1.27;0.45;;;20.50;33.00;;;;;;5032873;28;20123;-67
2023/12/02 05:33:58;;;;;;;0.98;0.47;;;20.30;33.20;;;;;;5032710;28;20513;-68
2023/12/02 05:36:23;;;;;;;0.82;0.45;;;20.20;33.70;;;;;;5032903;28;20045;-68
2023/12/02 05:38:49;;;;;;;0.60;0.40;;;20.00;33.50;;;;;;5033045;28;20059;-68
2023/12/02 05:41:15;;;;;;;0.88;0.50;;;19.90;33.70;;;;;;5032529;28;20200;-68
2023/12/02 05:43:40;;;;;;;1.00;0.40;;;19.80;33.90;;;;;;5049201;28;20401;-68
2023/12/02 05:46:06;;;;;;;0.75;0.35;;;19.60;34.10;;;;;;5032642;28;20042;-68
2023/12/02 05:48:32;;;;;;;1.00;0.60;;;19.50;34.20;;;;;;5032630;28;20056;-69
2023/12/02 05:51:00;;;;;;;0.90;0.50;;;19.40;34.40;;;;;;5032580;28;20128;-68
2023/12/02 05:53:26;;;;;;;0.98;0.40;;;19.30;34.60;;;;;;5033684;28;20124;-68
2023/12/02 05:55:52;;;;;;;0.77;0.43;;;19.20;34.70;;;;;;5033690;28;20133;-68
2023/12/02 05:58:18;;;;;;;0.80;0.60;;;19.10;34.90;;;;;;5032580;28;20124;-68
2023/12/02 06:00:44;;;;;;;1.23;0.73;;;19.00;35.10;;;;;;5032511;28;20493;-68
2023/12/02 06:03:09;;;;;;;0.90;0.50;;;18.80;35.20;;;;;;5032176;28;20073;-68
2023/12/02 06:05:35;;;;;;;0.73;0.43;;;18.70;35.30;;;;;;5032211;28;20045;-68
2023/12/02 06:08:01;;;;;;;0.60;0.40;;;18.70;35.50;;;;;;5032383;28;20044;-68
2023/12/02 06:10:26;;;;;;;0.77;0.50;;;18.60;35.60;;;;;;5032420;28;20099;-67
2023/12/02 06:12:52;;;;;;;0.95;0.50;;;18.50;35.70;;;;;;5032014;28;20505;-68
2023/12/02 06:15:18;;;;;;;0.95;0.60;;;18.40;35.90;;;;;;5032367;28;20045;-68
2023/12/02 06:17:44;;;;;;;1.15;0.55;;;18.30;36.00;;;;;;5032004;28;20639;-69
2023/12/02 06:20:11;;;;;;;0.85;0.40;;;18.20;36.10;;;;;;5032138;28;20437;-67
2023/12/02 06:22:36;;;;;;;1.30;0.60;;;18.10;36.30;;;;;;5031906;28;20045;-69
2023/12/02 06:25:03;;;;;;;0.77;0.50;;;18.00;37.20;;;;;;5033276;28;20059;-67
2023/12/02 06:27:28;;;;;;;1.15;0.50;;;18.00;36.60;;;;;;5032076;28;20061;-69
2023/12/02 06:29:54;;;;;;;1.02;0.52;;;17.90;36.70;;;;;;5032088;28;20033;-68
2023/12/02 06:32:20;;;;;;;0.90;0.50;;;17.90;36.90;;;;;;5032019;28;20397;-68
2023/12/02 06:34:45;;;;;;;1.27;0.70;;;17.70;37.00;;;;;;5031810;28;20042;-67
2023/12/02 06:37:11;;;;;;;0.98;0.80;;;17.60;37.10;;;;;;5031840;28;20045;-68
2023/12/02 06:39:36;;;;;;;1.00;0.57;;;17.50;37.10;;;;;;5031587;28;20053;-68
2023/12/02 06:42:02;;;;;;;1.20;0.90;;;17.50;37.30;;;;;;5031477;28;20552;-68
2023/12/02 06:44:28;;;;;;;0.95;0.50;;;17.40;37.40;;;;;;5031450;28;20073;-68
2023/12/02 06:46:56;;;;;;;1.02;0.80;;;17.30;37.50;;;;;;5030772;28;20045;-68
2023/12/02 06:49:22;;;;;;;1.02;0.70;;;17.20;37.60;;;;;;5031571;28;20037;-68
2023/12/02 06:51:48;;;;;;;1.30;0.60;;;17.10;37.70;;;;;;5032618;28;20038;-68
2023/12/02 06:54:14;;;;;;;1.45;0.60;;;17.10;37.90;;;;;;5031629;28;20057;-68
2023/12/02 06:56:40;;;;;;;1.00;0.70;;;17.00;37.90;;;;;;5031637;28;20103;-68
2023/12/02 06:59:07;;;;;;;1.17;0.70;;;16.90;38.00;;;;;;5031525;28;20099;-68
2023/12/02 07:01:33;;;;;;;1.38;0.60;;;16.90;38.10;;;;;;5031220;28;20050;-68
2023/12/02 07:04:00;;;;;;;1.00;0.68;;;16.80;38.20;;;;;;5031437;28;20044;-68
2023/12/02 07:06:27;;;;;;;1.10;0.70;;;16.80;38.30;;;;;;5031333;28;20046;-68
2023/12/02 07:08:54;;;;;;;0.85;0.60;;;16.70;38.30;;;;;;5031252;28;20045;-68
2023/12/02 07:11:21;;;;;;;1.10;0.63;;;16.70;38.30;;;;;;5031357;28;20095;-68
2023/12/02 07:13:46;;;;;;;1.10;0.63;;;16.70;38.40;;;;;;5031013;28;20099;-68
2023/12/02 07:16:12;;;;;;;1.27;0.60;;;16.70;38.50;;;;;;5032154;28;20042;-69
2023/12/02 07:18:39;;;;;;;0.75;0.50;;;16.60;38.50;;;;;;5031111;28;20508;-69
2023/12/02 07:21:05;;;;;;;2.50;0.82;;;16.60;38.50;;;;;;5030708;28;20053;-69
2023/12/02 07:23:31;;;;;;;1.10;0.68;;;16.60;38.50;;;;;;5030864;28;20176;-67
2023/12/02 07:25:57;;;;;;;1.10;0.75;;;16.50;38.60;;;;;;5031023;28;20499;-67
2023/12/02 07:28:23;;;;;;;1.23;1.00;;;16.50;38.60;;;;;;5030829;28;20046;-67
2023/12/02 07:30:49;;;;;;;2.92;1.33;;;16.50;38.70;;;;;;5028733;28;20056;-67
2023/12/02 07:33:15;;;;;;;2.42;2.22;;;16.50;38.90;;;;;;5030385;28;20388;-67
2023/12/02 07:35:42;;;;;;;2.17;1.98;;;16.60;39.60;;;;;;5028876;28;20045;-67
2023/12/02 07:38:08;;;;;;;2.15;1.92;;;16.80;39.70;;;;;;5030460;28;20477;-67
2023/12/02 07:40:35;;;;;;;3.17;2.17;;;17.10;39.40;;;;;;5030325;28;20490;-66
2023/12/02 07:43:01;;;;;;;2.55;2.22;;;17.50;40.10;;;;;;5029424;28;20053;-67
2023/12/02 07:45:27;;;;;;;2.53;2.00;;;18.00;39.40;;;;;;5029393;28;20113;-68
2023/12/02 07:47:53;;;;;;;2.45;2.20;;;18.30;39.30;;;;;;5030562;28;20041;-66
2023/12/02 07:50:19;;;;;;;2.28;1.75;;;18.70;38.90;;;;;;5029513;28;20124;-67
2023/12/02 07:52:45;;;;;;;2.42;1.77;;;19.20;38.50;;;;;;5028288;28;20469;-67
2023/12/02 07:55:10;;;;;;;2.85;2.55;;;19.60;37.80;;;;;;5028633;28;20038;-68
2023/12/02 07:57:36;;;;;;;4.10;2.20;;;20.00;37.10;;;;;;5031485;28;20087;-68
2023/12/02 08:00:02;;;;;;;3.63;2.08;;;20.40;36.60;;;;;;5035363;28;20040;-67
2023/12/02 08:02:28;;;;;;;2.42;2.22;;;20.70;36.20;;;;;;5034559;28;20401;-67
2023/12/02 08:04:53;;;;;;;2.38;1.35;;;20.90;35.90;;;;;;5033641;28;20088;-66
2023/12/02 08:07:19;;;;;;;2.53;1.98;;;21.10;35.80;;;;;;5033211;28;20082;-67
2023/12/02 08:09:44;;;;;;;2.25;1.70;;;21.30;35.70;;;;;;5035234;28;20030;-67
2023/12/02 08:12:10;;;;;;;2.17;1.90;;;21.40;35.50;;;;;;5034055;28;20404;-68
2023/12/02 08:14:36;;;;;;;2.30;1.73;;;21.50;35.50;;;;;;5032329;28;20045;-67
2023/12/02 08:17:02;;;;;;;2.13;1.90;;;21.60;35.30;;;;;;5031176;28;20056;-67
2023/12/02 08:19:28;;;;;;;2.00;1.80;;;21.70;35.20;;;;;;5034201;28;20388;-68
2023/12/02 08:21:54;;;;;;;2.30;1.90;;;21.90;35.20;;;;;;5033335;28;20035;-68
2023/12/02 08:24:20;;;;;;;1.20;1.02;;;21.90;35.00;;;;;;5034722;28;20443;-67
2023/12/02 08:26:47;;;;;;;2.60;2.00;;;22.10;34.80;;;;;;5032592;28;20041;-69
2023/12/02 08:29:13;;;;;;;2.08;1.70;;;22.20;34.70;;;;;;5032930;28;20091;-72
2023/12/02 08:31:39;;;;;;;2.53;1.77;;;22.40;34.20;;;;;;5033704;28;20048;-70
2023/12/02 08:34:05;;;;;;;5.75;1.40;;;22.60;34.10;;;;;;5031046;28;20029;-72
2023/12/02 08:36:30;;;;;;;1.95;1.77;;;22.60;33.90;;;;;;5031664;28;20451;-68
2023/12/02 08:38:56;;;;;;;2.00;1.75;;;22.70;33.90;;;;;;5033386;28;20389;-69
2023/12/02 08:41:22;;;;;;;2.90;1.60;;;22.70;34.10;;;;;;5034556;28;20072;-67
2023/12/02 08:43:47;;;;;;;1.85;1.52;;;22.70;34.10;;;;;;5032990;28;20099;-67
2023/12/02 08:46:15;;;;;;;2.72;1.85;;;22.70;34.20;;;;;;5033215;28;20420;-70
2023/12/02 08:48:40;;;;;;;2.10;1.30;;;22.70;34.10;;;;;;5032998;28;20041;-69
2023/12/02 08:51:07;;;;;;;4.60;1.75;;;22.90;34.00;;;;;;5032131;28;20038;-69
2023/12/02 08:53:32;;;;;;;1.92;1.50;;;23.00;33.60;;;;;;5033236;28;20056;-69
2023/12/02 08:55:59;;;;;;;1.50;1.23;;;23.20;33.40;;;;;;5031432;28;20037;-68
2023/12/02 08:58:24;;;;;;;2.78;1.80;;;23.50;33.30;;;;;;5033684;28;20065;-71
2023/12/02 09:00:50;;;;;;;2.38;1.90;;;23.60;32.90;;;;;;5031610;28;20477;-66
2023/12/02 09:03:16;;;;;;;3.65;1.40;;;23.70;32.80;;;;;;5032169;28;20029;-69
2023/12/02 09:05:41;;;;;;;1.58;1.25;;;23.80;32.70;;;;;;5033916;28;20538;-69
2023/12/02 09:08:07;;;;;;;4.18;1.30;;;23.80;32.50;;;;;;5032853;28;20037;-70
2023/12/02 09:10:32;;;;;;;1.38;1.10;;;24.00;32.30;;;;;;5033108;28;20121;-69
2023/12/02 09:12:58;;;;;;;1.85;1.58;;;24.00;32.20;;;;;;5034014;28;20053;-69
2023/12/02 09:23:23;;;;;;;3.15;0.70;;;24.00;32.40;;;;;;5130192;27;20877;-68
2023/12/02 09:25:50;;;;;;;1.08;0.70;;;24.80;31.30;;;;;;5128976;28;20092;-66
2023/12/02 09:28:18;;;;;;;0.80;0.50;;;25.00;30.80;;;;;;5128876;28;20049;-68
2023/12/02 09:33:33;;;;;;;0.70;0.40;;;25.30;30.50;;;;;;5130361;27;20414;-68
2023/12/02 09:36:01;;;;;;;1.13;0.60;;;25.30;30.30;;;;;;5128871;28;20043;-68
2023/12/02 09:38:31;;;;;;;1.40;0.57;;;25.20;30.30;;;;;;5128902;28;20085;-68
2023/12/02 09:44:28;;;;;;;1.40;0.50;;;24.80;30.60;;;;;;5130217;27;20411;-66
2023/12/02 09:47:04;;;;;;;1.00;0.65;;;24.60;30.90;;;;;;5128791;28;20055;-67
2023/12/02 10:00:53;;;;;;;0.95;0.43;;;23.60;32.00;;;;;;5130184;27;20379;-67
2023/12/02 10:15:07;;;;;;;0.80;0.40;;;22.50;33.40;;;;;;5130427;27;20383;-68
2023/12/02 10:17:39;;;;;;;1.25;0.57;;;22.10;33.90;;;;;;5128922;28;20043;-68
2023/12/02 10:20:09;;;;;;;0.88;0.50;;;21.90;34.10;;;;;;5129306;28;20100;-68
2023/12/02 10:22:44;;;;;;;0.95;0.57;;;21.70;34.30;;;;;;5129185;28;20046;-69
2023/12/02 10:25:26;;;;;;;0.80;0.60;;;21.50;34.60;;;;;;5128923;28;20093;-68
2023/12/02 10:27:56;;;;;;;0.80;0.45;;;21.40;34.90;;;;;;5129048;28;20047;-68
2023/12/02 10:30:24;;;;;;;1.00;0.50;;;21.20;35.00;;;;;;5129079;28;20078;-66
2023/12/02 10:43:44;;;;;;;1.52;0.73;;;21.00;35.20;;;;;;5130296;27;20383;-66
2023/12/02 10:46:11;;;;;;;1.50;0.88;;;20.30;36.30;;;;;;5128935;28;20047;-67
2023/12/02 10:48:38;;;;;;;1.15;0.60;;;20.10;36.50;;;;;;5129181;28;20085;-67
2023/12/02 10:51:07;;;;;;;1.73;0.77;;;20.00;36.60;;;;;;5130147;27;20035;-66
2023/12/02 10:53:36;;;;;;;1.30;0.68;;;19.90;36.90;;;;;;5128842;28;20048;-66
2023/12/02 10:56:07;;;;;;;1.10;0.80;;;19.70;37.00;;;;;;5129048;28;20078;-66
2023/12/02 10:58:33;;;;;;;1.10;0.60;;;19.60;37.20;;;;;;5128690;27;20047;-65
2023/12/02 11:01:08;;;;;;;1.48;0.77;;;19.50;37.30;;;;;;5128716;27;20390;-65
2023/12/02 11:06:30;;;;;;;1.10;0.88;;;19.40;37.60;;;;;;5089324;28;20410;-67
2023/12/02 11:09:06;;;;;;;1.38;0.80;;;19.10;37.80;;;;;;5089426;28;20564;-67
2023/12/02 11:14:28;;;;;;;1.73;0.90;;;18.90;38.10;;;;;;5130401;27;20411;-67
2023/12/02 11:20:14;;;;;;;1.55;0.93;;;18.70;38.40;;;;;;5089423;28;20385;-67
2023/12/02 11:42:27;;;;;;;1.40;0.70;;;18.30;39.10;;;;;;5089661;27;20385;-67
2023/12/02 11:45:12;;;;;;;;;;;18.10;39.30;;;;;;5088551;28;20048;-67
2023/12/02 11:56:15;;;;;;;1.50;1.23;;;18.00;39.40;;;;;;5089328;28;20885;-64
2023/12/02 11:59:03;;;;;;;1.67;1.17;;;17.80;39.70;;;;;;5088048;28;20127;-66
2023/12/02 12:12:38;;;;;;;1.48;1.00;;;17.70;39.70;;;;;;5089487;27;20386;-65
2023/12/02 12:15:04;;;;;;;;;;;17.50;40.20;;;;;;5088583;28;20472;-66
2023/12/02 12:17:30;;;;;;;1.95;1.23;;;17.40;40.00;;;;;;5088358;28;19916;-67
2023/12/02 12:19:59;;;;;;;2.40;1.13;;;17.40;40.10;;;;;;5089270;28;20036;-67
2023/12/02 12:22:26;;;;;;;1.33;0.98;;;17.30;40.20;;;;;;5089292;28;20033;-67
2023/12/02 12:24:52;;;;;;;1.52;1.00;;;17.30;40.30;;;;;;5088070;28;20048;-64
2023/12/02 12:27:17;;;;;;;1.73;1.13;;;17.20;40.30;;;;;;5088279;28;20048;-67
2023/12/02 12:29:58;;;;;;;1.40;1.00;;;17.20;40.50;;;;;;5089480;28;20028;-67
2023/12/02 12:32:27;;;;;;;1.83;1.55;;;17.10;40.50;;;;;;5089110;28;20458;-67
2023/12/02 12:34:54;;;;;;;1.35;1.02;;;17.10;40.60;;;;;;5087723;28;20508;-67
2023/12/02 12:37:20;;;;;;;2.13;1.38;;;17.10;40.70;;;;;;5089024;28;20123;-64
2023/12/02 12:39:47;;;;;;;1.52;1.00;;;17.00;40.70;;;;;;5087648;28;20115;-67
2023/12/02 12:42:16;;;;;;;2.38;1.25;;;17.00;40.70;;;;;;5087903;28;20057;-67
2023/12/02 12:44:42;;;;;;;1.50;0.82;;;17.00;40.80;;;;;;5087612;28;20044;-67
2023/12/02 12:47:08;;;;;;;1.65;1.23;;;17.00;40.80;;;;;;5087737;28;20488;-64
2023/12/02 12:49:38;;;;;;;1.50;1.25;;;16.90;40.80;;;;;;5087594;28;20044;-67
2023/12/02 12:52:07;;;;;;;2.17;1.33;;;16.90;40.90;;;;;;5088747;28;20044;-66
2023/12/02 12:54:39;;;;;;;1.83;1.15;;;16.90;40.90;;;;;;5087430;28;20052;-67
2023/12/02 12:57:11;;;;;;;1.75;1.15;;;16.90;40.90;;;;;;5087222;28;20087;-64
2023/12/02 12:59:37;;;;;;;1.15;0.95;;;16.90;41.00;;;;;;5087372;28;20571;-64
2023/12/02 13:07:52;;;;;;;1.38;1.23;;;16.80;41.00;;;;;;5110144;27;20392;-66
2023/12/02 13:10:18;;;;;;;1.52;1.40;;;16.80;41.00;;;;;;5109195;28;20066;-67
2023/12/02 13:12:48;;;;;;;1.30;0.93;;;16.80;41.00;;;;;;5108177;28;20036;-67
2023/12/02 13:15:19;;;;;;;1.73;1.10;;;16.80;41.00;;;;;;5108408;28;20043;-67
2023/12/02 13:17:47;;;;;;;1.75;1.08;;;16.80;41.10;;;;;;5108267;28;20043;-67
2023/12/02 13:20:16;;;;;;;1.52;0.95;;;16.70;41.10;;;;;;5108099;28;20149;-65
2023/12/02 13:22:45;;;;;;;1.80;1.63;;;16.70;41.00;;;;;;5109689;28;20043;-67
2023/12/02 13:30:34;;;;;;;1.95;1.42;;;16.70;41.20;;;;;;5109772;27;20384;-67
2023/12/02 13:33:20;;;;;;;1.48;0.98;;;16.70;41.20;;;;;;5091383;28;20569;-66
2023/12/02 13:36:05;;;;;;;1.48;1.20;;;16.60;41.10;;;;;;5091662;28;20039;-67
2023/12/02 13:38:38;;;;;;;1.70;1.48;;;16.60;41.10;;;;;;5089303;28;20388;-64
2023/12/02 13:43:52;;;;;;;1.98;1.55;;;16.60;41.20;;;;;;5089335;28;20394;-64
2023/12/02 13:46:25;;;;;;;1.65;1.27;;;16.60;41.20;;;;;;5086242;28;20079;-67
2023/12/02 13:51:30;;;;;;;1.27;0.85;;;16.60;41.20;;;;;;5089413;28;20756;-67
2023/12/02 13:59:39;;;;;;;1.75;1.42;;;16.50;41.40;;;;;;5129663;27;20419;-67
2023/12/02 14:05:15;;;;;;;1.50;1.38;;;16.50;41.40;;;;;;5088270;27;20519;-67
2023/12/02 14:07:51;;;;;;;1.80;1.40;;;16.50;41.40;;;;;;5087686;28;20119;-68
2023/12/02 14:10:19;;;;;;;2.95;1.70;;;16.50;41.50;;;;;;5087587;28;20463;-67
2023/12/02 14:13:22;;;;;;;2.13;1.60;;;16.50;41.90;;;;;;5086639;28;20094;-64
2023/12/02 14:24:45;;;;;;;1.85;1.45;;;16.40;41.50;;;;;;5089370;28;20386;-68
2023/12/02 14:27:38;;;;;;;1.52;1.42;;;16.40;41.60;;;;;;5089400;28;20058;-64
2023/12/02 14:35:57;;;;;;;1.77;1.15;;;16.30;41.60;;;;;;5130038;27;20403;-67
2023/12/02 14:46:56;;;;;;;1.85;1.45;;;16.30;41.60;;;;;;5089920;28;20447;-67
2023/12/02 14:49:26;;;;;;;1.77;1.45;;;16.30;41.70;;;;;;5088090;28;20048;-66
2023/12/02 14:51:54;;;;;;;2.15;1.48;;;16.30;41.70;;;;;;5088426;28;20134;-67
2023/12/02 14:54:28;;;;;;;2.10;1.70;;;16.30;41.70;;;;;;5088060;28;20040;-68
2023/12/02 14:56:54;;;;;;;2.47;1.63;;;16.20;41.70;;;;;;5088014;28;20040;-67
2023/12/02 14:59:20;;;;;;;1.50;1.10;;;16.20;41.60;;;;;;5088160;28;20047;-64
2023/12/02 15:01:52;;;;;;;1.83;1.50;;;16.20;41.60;;;;;;5089567;28;20036;-66
2023/12/02 15:04:19;;;;;;;1.60;1.33;;;16.20;41.60;;;;;;5087899;28;20044;-67
2023/12/02 15:06:49;;;;;;;1.60;1.08;;;16.20;41.70;;;;;;5087762;28;20048;-64
2023/12/02 15:09:22;;;;;;;1.65;1.35;;;16.20;41.80;;;;;;5088011;28;20379;-67
2023/12/02 15:11:49;;;;;;;1.90;1.25;;;16.20;41.80;;;;;;5087741;28;20079;-66